sensor_id;sensor_type;location;lat;lon;timestamp;pressure;altitude;pressure_sealevel;temperature;humidity
5872;BME280;2962;51.312;7.378;2023-09-19T00:01:12;96735.13;;;13.14;100.00
5872;BME280;2962;51.312;7.378;2023-09-19T00:03:39;96732.88;;;13.02;100.00
5872;BME280;2962;51.312;7.378;2023-09-19T00:06:07;96760.63;;;13.01;100.00
5872;BME280;2962;51.312;7.378;2023-09-19T00:08:33;96745.03;;;12.94;100.00
5872;BME280;2962;51.312;7.378;2023-09-19T00:10:59;96741.22;;;12.81;100.00
5872;BME280;2962;51.312;7.378;2023-09-19T00:13:34;96755.69;;;12.81;100.00
5872;BME280;2962;51.312;7.378;2023-09-19T00:16:01;96761.50;;;12.83;100.00
5872;BME280;2962;51.312;7.378;2023-09-19T00:18:32;96753.00;;;12.70;100.00
5872;BME280;2962;51.312;7.378;2023-09-19T00:21:00;96750.28;;;12.67;100.00
5872;BME280;2962;51.312;7.378;2023-09-19T00:23:25;96776.38;;;12.79;100.00
5872;BME280;2962;51.312;7.378;2023-09-19T00:25:50;96758.44;;;12.74;100.00
5872;BME280;2962;51.312;7.378;2023-09-19T00:28:16;96765.03;;;12.84;100.00
5872;BME280;2962;51.312;7.378;2023-09-19T00:30:44;96772.41;;;12.90;100.00
5872;BME280;2962;51.312;7.378;2023-09-19T00:33:09;96775.91;;;12.94;100.00
5872;BME280;2962;51.312;7.378;2023-09-19T00:35:36;96772.81;;;12.89;100.00
5872;BME280;2962;51.312;7.378;2023-09-19T00:38:02;96775.13;;;12.94;100.00
5872;BME280;2962;51.312;7.378;2023-09-19T00:40:28;96768.09;;;12.93;100.00
5872;BME280;2962;51.312;7.378;2023-09-19T00:42:57;96778.59;;;12.98;100.00
5872;BME280;2962;51.312;7.378;2023-09-19T00:45:25;96762.69;;;12.82;100.00
5872;BME280;2962;51.312;7.378;2023-09-19T00:47:51;96776.34;;;12.86;100.00
5872;BME280;2962;51.312;7.378;2023-09-19T00:50:18;96775.19;;;12.80;100.00
5872;BME280;2962;51.312;7.378;2023-09-19T00:52:46;96781.44;;;12.84;100.00
5872;BME280;2962;51.312;7.378;2023-09-19T00:55:12;96769.78;;;12.76;100.00
5872;BME280;2962;51.312;7.378;2023-09-19T00:57:39;96789.66;;;12.84;100.00
5872;BME280;2962;51.312;7.378;2023-09-19T01:00:06;96785.72;;;12.85;100.00
5872;BME280;2962;51.312;7.378;2023-09-19T01:02:32;96782.25;;;12.77;100.00
5872;BME280;2962;51.312;7.378;2023-09-19T01:04:58;96768.59;;;12.74;100.00
5872;BME280;2962;51.312;7.378;2023-09-19T01:07:25;96753.00;;;12.67;100.00
5872;BME280;2962;51.312;7.378;2023-09-19T01:09:50;96786.63;;;12.60;100.00
5872;BME280;2962;51.312;7.378;2023-09-19T01:12:22;96782.34;;;12.56;100.00
5872;BME280;2962;51.312;7.378;2023-09-19T01:14:57;96787.84;;;12.45;100.00
5872;BME280;2962;51.312;7.378;2023-09-19T01:17:35;96801.91;;;12.47;100.00
5872;BME280;2962;51.312;7.378;2023-09-19T01:20:25;96784.78;;;12.36;100.00
5872;BME280;2962;51.312;7.378;2023-09-19T01:23:14;96789.78;;;12.48;100.00
5872;BME280;2962;51.312;7.378;2023-09-19T01:26:04;96793.34;;;12.41;100.00
5872;BME280;2962;51.312;7.378;2023-09-19T01:28:42;96803.84;;;12.50;100.00
5872;BME280;2962;51.312;7.378;2023-09-19T01:31:11;96790.56;;;12.52;100.00
5872;BME280;2962;51.312;7.378;2023-09-19T01:36:28;96820.22;;;12.54;100.00
5872;BME280;2962;51.312;7.378;2023-09-19T01:38:55;96821.00;;;12.54;100.00
5872;BME280;2962;51.312;7.378;2023-09-19T01:44:34;96815.91;;;12.56;100.00
5872;BME280;2962;51.312;7.378;2023-09-19T01:47:04;96831.53;;;12.56;100.00
5872;BME280;2962;51.312;7.378;2023-09-19T01:49:53;96817.13;;;12.48;100.00
5872;BME280;2962;51.312;7.378;2023-09-19T01:52:21;96804.69;;;12.33;100.00
5872;BME280;2962;51.312;7.378;2023-09-19T01:54:51;96814.00;;;12.46;100.00
5872;BME280;2962;51.312;7.378;2023-09-19T01:57:28;96815.59;;;12.36;100.00
5872;BME280;2962;51.312;7.378;2023-09-19T02:00:00;96798.44;;;12.29;100.00
5872;BME280;2962;51.312;7.378;2023-09-19T02:02:53;96819.91;;;12.34;100.00
5872;BME280;2962;51.312;7.378;2023-09-19T02:05:24;96826.53;;;12.36;100.00
5872;BME280;2962;51.312;7.378;2023-09-19T02:07:51;96817.16;;;12.37;100.00
5872;BME280;2962;51.312;7.378;2023-09-19T02:10:18;96807.06;;;12.27;100.00
5872;BME280;2962;51.312;7.378;2023-09-19T02:12:43;96828.47;;;12.32;100.00
5872;BME280;2962;51.312;7.378;2023-09-19T02:15:09;96813.28;;;12.31;100.00
5872;BME280;2962;51.312;7.378;2023-09-19T02:17:34;96809.78;;;12.31;100.00
5872;BME280;2962;51.312;7.378;2023-09-19T02:20:00;96817.56;;;12.32;100.00
5872;BME280;2962;51.312;7.378;2023-09-19T02:22:25;96830.44;;;12.32;100.00
5872;BME280;2962;51.312;7.378;2023-09-19T02:24:51;96833.53;;;12.41;100.00
5872;BME280;2962;51.312;7.378;2023-09-19T02:27:17;96826.94;;;12.35;100.00
5872;BME280;2962;51.312;7.378;2023-09-19T02:29:43;96824.97;;;12.39;100.00
5872;BME280;2962;51.312;7.378;2023-09-19T02:32:08;96833.56;;;12.30;100.00
5872;BME280;2962;51.312;7.378;2023-09-19T02:34:36;96841.78;;;12.30;100.00
5872;BME280;2962;51.312;7.378;2023-09-19T02:37:05;96842.91;;;12.36;100.00
5872;BME280;2962;51.312;7.378;2023-09-19T02:39:33;96844.88;;;12.36;100.00
5872;BME280;2962;51.312;7.378;2023-09-19T02:41:59;96825.78;;;12.25;100.00
5872;BME280;2962;51.312;7.378;2023-09-19T02:44:24;96847.63;;;12.29;100.00
5872;BME280;2962;51.312;7.378;2023-09-19T02:46:50;96848.03;;;12.24;100.00
5872;BME280;2962;51.312;7.378;2023-09-19T02:49:15;96838.66;;;12.17;100.00
5872;BME280;2962;51.312;7.378;2023-09-19T02:51:42;96843.75;;;12.23;100.00
5872;BME280;2962;51.312;7.378;2023-09-19T02:54:08;96844.91;;;12.18;100.00
5872;BME280;2962;51.312;7.378;2023-09-19T02:56:33;96831.25;;;12.14;100.00
5872;BME280;2962;51.312;7.378;2023-09-19T02:59:01;96840.63;;;12.13;100.00
5872;BME280;2962;51.312;7.378;2023-09-19T03:01:27;96838.66;;;12.14;100.00
5872;BME280;2962;51.312;7.378;2023-09-19T03:03:54;96852.72;;;12.16;100.00
5872;BME280;2962;51.312;7.378;2023-09-19T03:06:20;96841.44;;;12.03;100.00
5872;BME280;2962;51.312;7.378;2023-09-19T03:08:46;96847.28;;;12.02;100.00
5872;BME280;2962;51.312;7.378;2023-09-19T03:11:14;96848.81;;;11.99;100.00
5872;BME280;2962;51.312;7.378;2023-09-19T03:13:40;96849.59;;;12.07;100.00
5872;BME280;2962;51.312;7.378;2023-09-19T03:16:07;96855.47;;;12.09;100.00
5872;BME280;2962;51.312;7.378;2023-09-19T03:18:34;96850.00;;;12.09;100.00
5872;BME280;2962;51.312;7.378;2023-09-19T03:20:59;96878.47;;;12.08;100.00
5872;BME280;2962;51.312;7.378;2023-09-19T03:23:28;96887.44;;;11.94;100.00
5872;BME280;2962;51.312;7.378;2023-09-19T03:25:54;96885.13;;;12.03;100.00
5872;BME280;2962;51.312;7.378;2023-09-19T03:28:21;96890.19;;;12.01;100.00
5872;BME280;2962;51.312;7.378;2023-09-19T03:31:06;96892.91;;;11.94;100.00
5872;BME280;2962;51.312;7.378;2023-09-19T03:33:32;96896.41;;;11.80;100.00
5872;BME280;2962;51.312;7.378;2023-09-19T03:35:58;96882.75;;;11.84;100.00
5872;BME280;2962;51.312;7.378;2023-09-19T03:38:25;96881.59;;;11.85;100.00
5872;BME280;2962;51.312;7.378;2023-09-19T03:40:50;96877.28;;;11.80;100.00
5872;BME280;2962;51.312;7.378;2023-09-19T03:43:15;96882.34;;;11.78;100.00
5872;BME280;2962;51.312;7.378;2023-09-19T03:45:41;96883.53;;;11.73;100.00
5872;BME280;2962;51.312;7.378;2023-09-19T03:48:10;96869.09;;;11.66;100.00
5872;BME280;2962;51.312;7.378;2023-09-19T03:50:36;96865.59;;;11.65;100.00
5872;BME280;2962;51.312;7.378;2023-09-19T03:53:02;96882.34;;;11.74;100.00
5872;BME280;2962;51.312;7.378;2023-09-19T03:55:27;96869.88;;;11.59;100.00
5872;BME280;2962;51.312;7.378;2023-09-19T03:57:53;96886.63;;;11.61;100.00
5872;BME280;2962;51.312;7.378;2023-09-19T04:00:18;96888.19;;;11.62;100.00
5872;BME280;2962;51.312;7.378;2023-09-19T04:02:51;96896.00;;;11.53;100.00
5872;BME280;2962;51.312;7.378;2023-09-19T04:05:16;96894.41;;;11.59;100.00
5872;BME280;2962;51.312;7.378;2023-09-19T04:07:42;96885.44;;;11.52;100.00
5872;BME280;2962;51.312;7.378;2023-09-19T04:10:07;96882.31;;;11.57;100.00
5872;BME280;2962;51.312;7.378;2023-09-19T04:12:34;96882.72;;;11.55;100.00
5872;BME280;2962;51.312;7.378;2023-09-19T04:14:59;96889.75;;;11.60;100.00
5872;BME280;2962;51.312;7.378;2023-09-19T04:17:24;96871.00;;;11.40;100.00
5872;BME280;2962;51.312;7.378;2023-09-19T04:19:50;96876.50;;;11.62;100.00
5872;BME280;2962;51.312;7.378;2023-09-19T04:22:15;96864.38;;;11.48;100.00
5872;BME280;2962;51.312;7.378;2023-09-19T04:24:40;96867.91;;;11.42;100.00
5872;BME280;2962;51.312;7.378;2023-09-19T04:27:06;96887.38;;;11.40;100.00
5872;BME280;2962;51.312;7.378;2023-09-19T04:29:32;96882.72;;;11.48;100.00
5872;BME280;2962;51.312;7.378;2023-09-19T04:31:57;96886.63;;;11.54;100.00
5872;BME280;2962;51.312;7.378;2023-09-19T04:34:23;96880.34;;;11.36;100.00
5872;BME280;2962;51.312;7.378;2023-09-19T04:36:49;96892.06;;;11.40;100.00
5872;BME280;2962;51.312;7.378;2023-09-19T04:39:14;96891.66;;;11.41;100.00
5872;BME280;2962;51.312;7.378;2023-09-19T04:41:40;96901.44;;;11.53;100.00
5872;BME280;2962;51.312;7.378;2023-09-19T04:44:06;96891.28;;;11.39;100.00
5872;BME280;2962;51.312;7.378;2023-09-19T04:46:32;96888.16;;;11.44;100.00
5872;BME280;2962;51.312;7.378;2023-09-19T04:48:57;96921.28;;;11.39;100.00
5872;BME280;2962;51.312;7.378;2023-09-19T04:51:23;96893.25;;;11.49;100.00
5872;BME280;2962;51.312;7.378;2023-09-19T04:53:48;96904.53;;;11.44;100.00
5872;BME280;2962;51.312;7.378;2023-09-19T04:56:14;96907.22;;;11.37;100.00
5872;BME280;2962;51.312;7.378;2023-09-19T04:58:40;96903.72;;;11.37;100.00
5872;BME280;2962;51.312;7.378;2023-09-19T05:01:05;96902.19;;;11.36;100.00
5872;BME280;2962;51.312;7.378;2023-09-19T05:03:30;96883.06;;;11.25;100.00
5872;BME280;2962;51.312;7.378;2023-09-19T05:05:56;96902.94;;;11.29;100.00
5872;BME280;2962;51.312;7.378;2023-09-19T05:08:22;96903.72;;;11.37;100.00
5872;BME280;2962;51.312;7.378;2023-09-19T05:10:47;96901.41;;;11.39;100.00
5872;BME280;2962;51.312;7.378;2023-09-19T05:13:14;96912.69;;;11.34;100.00
5872;BME280;2962;51.312;7.378;2023-09-19T05:15:39;96917.34;;;11.26;100.00
5872;BME280;2962;51.312;7.378;2023-09-19T05:18:04;96917.34;;;11.22;100.00
5872;BME280;2962;51.312;7.378;2023-09-19T05:20:31;96922.03;;;11.29;100.00
5872;BME280;2962;51.312;7.378;2023-09-19T05:23:02;96918.94;;;11.31;100.00
5872;BME280;2962;51.312;7.378;2023-09-19T05:25:32;96906.03;;;11.17;100.00
5872;BME280;2962;51.312;7.378;2023-09-19T05:28:00;96949.28;;;11.29;100.00
5872;BME280;2962;51.312;7.378;2023-09-19T05:30:28;96938.38;;;11.29;100.00
5872;BME280;2962;51.312;7.378;2023-09-19T05:32:54;96945.75;;;11.21;100.00
5872;BME280;2962;51.312;7.378;2023-09-19T05:35:20;96959.84;;;11.31;100.00
5872;BME280;2962;51.312;7.378;2023-09-19T05:37:47;96945.75;;;11.21;100.00
5872;BME280;2962;51.312;7.378;2023-09-19T05:40:14;96976.59;;;11.40;100.00
5872;BME280;2962;51.312;7.378;2023-09-19T05:42:41;96975.88;;;11.50;100.00
5872;BME280;2962;51.312;7.378;2023-09-19T05:45:06;96973.88;;;11.40;100.00
5872;BME280;2962;51.312;7.378;2023-09-19T05:47:32;96973.88;;;11.36;100.00
5872;BME280;2962;51.312;7.378;2023-09-19T05:49:57;96968.81;;;11.49;100.00
5872;BME280;2962;51.312;7.378;2023-09-19T05:52:24;96970.00;;;11.48;100.00
5872;BME280;2962;51.312;7.378;2023-09-19T05:54:49;96974.75;;;11.65;100.00
5872;BME280;2962;51.312;7.378;2023-09-19T05:57:15;96980.22;;;11.69;100.00
5872;BME280;2962;51.312;7.378;2023-09-19T05:59:41;96984.88;;;11.68;100.00
5872;BME280;2962;51.312;7.378;2023-09-19T06:02:08;96990.34;;;11.76;100.00
5872;BME280;2962;51.312;7.378;2023-09-19T06:04:35;96982.16;;;11.68;100.00
5872;BME280;2962;51.312;7.378;2023-09-19T06:07:00;96988.00;;;11.74;100.00
5872;BME280;2962;51.312;7.378;2023-09-19T06:09:25;97002.88;;;11.87;100.00
5872;BME280;2962;51.312;7.378;2023-09-19T06:11:53;96991.56;;;11.89;100.00
5872;BME280;2962;51.312;7.378;2023-09-19T06:14:18;96988.84;;;11.92;100.00
5872;BME280;2962;51.312;7.378;2023-09-19T06:16:44;97005.19;;;11.82;100.00
5872;BME280;2962;51.312;7.378;2023-09-19T06:19:09;97002.91;;;12.02;100.00
5872;BME280;2962;51.312;7.378;2023-09-19T06:21:35;97013.03;;;12.01;100.00
5872;BME280;2962;51.312;7.378;2023-09-19T06:24:01;97006.03;;;12.04;100.00
5872;BME280;2962;51.312;7.378;2023-09-19T06:26:27;97007.56;;;11.97;100.00
5872;BME280;2962;51.312;7.378;2023-09-19T06:28:52;97013.03;;;12.05;100.00
5872;BME280;2962;51.312;7.378;2023-09-19T06:31:17;97002.50;;;12.10;100.00
5872;BME280;2962;51.312;7.378;2023-09-19T06:33:43;96993.94;;;12.08;100.00
5872;BME280;2962;51.312;7.378;2023-09-19T06:36:08;96998.22;;;12.09;100.00
5872;BME280;2962;51.312;7.378;2023-09-19T06:38:34;96999.00;;;12.13;100.00
5872;BME280;2962;51.312;7.378;2023-09-19T06:41:02;97007.59;;;12.15;100.00
5872;BME280;2962;51.312;7.378;2023-09-19T06:43:30;97020.06;;;12.09;100.00
5872;BME280;2962;51.312;7.378;2023-09-19T06:45:56;97000.97;;;12.24;100.00
5872;BME280;2962;51.312;7.378;2023-09-19T06:48:22;97006.03;;;12.25;100.00
5872;BME280;2962;51.312;7.378;2023-09-19T06:50:50;97010.72;;;12.32;100.00
5872;BME280;2962;51.312;7.378;2023-09-19T06:53:15;97005.66;;;12.34;100.00
5872;BME280;2962;51.312;7.378;2023-09-19T06:55:42;96997.06;;;12.32;100.00
5872;BME280;2962;51.312;7.378;2023-09-19T06:58:09;97005.63;;;12.44;100.00
5872;BME280;2962;51.312;7.378;2023-09-19T07:00:35;96997.84;;;12.36;100.00
5872;BME280;2962;51.312;7.378;2023-09-19T07:03:06;97004.88;;;12.40;100.00
5872;BME280;2962;51.312;7.378;2023-09-19T07:05:37;97017.34;;;12.45;100.00
5872;BME280;2962;51.312;7.378;2023-09-19T07:08:05;96981.84;;;12.34;100.00
5872;BME280;2962;51.312;7.378;2023-09-19T07:10:36;97003.31;;;12.43;100.00
5872;BME280;2962;51.312;7.378;2023-09-19T07:13:06;97014.25;;;12.54;100.00
5872;BME280;2962;51.312;7.378;2023-09-19T07:15:34;97015.38;;;12.53;100.00
5872;BME280;2962;51.312;7.378;2023-09-19T07:18:12;97008.38;;;12.62;100.00
5872;BME280;2962;51.312;7.378;2023-09-19T07:20:39;97013.44;;;12.67;100.00
5872;BME280;2962;51.312;7.378;2023-09-19T07:23:04;97019.72;;;12.57;100.00
5872;BME280;2962;51.312;7.378;2023-09-19T07:25:30;96994.31;;;12.57;100.00
5872;BME280;2962;51.312;7.378;2023-09-19T07:27:56;97013.84;;;12.62;100.00
5872;BME280;2962;51.312;7.378;2023-09-19T07:30:25;97008.38;;;12.69;100.00
5872;BME280;2962;51.312;7.378;2023-09-19T07:32:51;97006.81;;;12.65;100.00
5872;BME280;2962;51.312;7.378;2023-09-19T07:35:17;97023.56;;;12.81;100.00
5872;BME280;2962;51.312;7.378;2023-09-19T07:37:45;97034.53;;;12.70;100.00
5872;BME280;2962;51.312;7.378;2023-09-19T07:40:15;97033.31;;;12.89;100.00
5872;BME280;2962;51.312;7.378;2023-09-19T07:42:40;97030.19;;;12.94;100.00
5872;BME280;2962;51.312;7.378;2023-09-19T07:45:07;97019.22;;;13.02;100.00
5872;BME280;2962;51.312;7.378;2023-09-19T07:47:33;97004.81;;;12.90;100.00
5872;BME280;2962;51.312;7.378;2023-09-19T07:49:59;97004.44;;;12.92;100.00
5872;BME280;2962;51.312;7.378;2023-09-19T07:52:27;97028.97;;;13.06;100.00
5872;BME280;2962;51.312;7.378;2023-09-19T07:54:53;97032.13;;;13.08;100.00
5872;BME280;2962;51.312;7.378;2023-09-19T07:57:18;97019.19;;;13.19;100.00
5872;BME280;2962;51.312;7.378;2023-09-19T07:59:45;97010.22;;;13.15;100.00
5872;BME280;2962;51.312;7.378;2023-09-19T08:02:10;97017.63;;;13.26;100.00
5872;BME280;2962;51.312;7.378;2023-09-19T08:04:42;97014.50;;;13.20;100.00
5872;BME280;2962;51.312;7.378;2023-09-19T08:07:08;97019.19;;;13.30;100.00
5872;BME280;2962;51.312;7.378;2023-09-19T08:09:34;97014.06;;;13.36;100.00
5872;BME280;2962;51.312;7.378;2023-09-19T08:11:59;97018.41;;;13.23;100.00
5872;BME280;2962;51.312;7.378;2023-09-19T08:14:27;97034.44;;;13.28;100.00
5872;BME280;2962;51.312;7.378;2023-09-19T08:16:57;97038.69;;;13.39;100.00
5872;BME280;2962;51.312;7.378;2023-09-19T08:19:22;97025.75;;;13.51;100.00
5872;BME280;2962;51.312;7.378;2023-09-19T08:21:48;97037.47;;;13.55;100.00
5872;BME280;2962;51.312;7.378;2023-09-19T08:24:13;97041.72;;;13.59;100.00
5872;BME280;2962;51.312;7.378;2023-09-19T08:26:40;97050.00;;;13.45;100.00
5872;BME280;2962;51.312;7.378;2023-09-19T08:29:05;97027.78;;;13.29;100.00
5872;BME280;2962;51.312;7.378;2023-09-19T08:31:33;97060.13;;;13.55;100.00
5872;BME280;2962;51.312;7.378;2023-09-19T08:33:58;97047.63;;;13.54;100.00
5872;BME280;2962;51.312;7.378;2023-09-19T08:36:24;97038.28;;;13.37;100.00
5872;BME280;2962;51.312;7.378;2023-09-19T08:38:50;97053.88;;;13.58;100.00
5872;BME280;2962;51.312;7.378;2023-09-19T08:41:17;97050.75;;;13.56;100.00
5872;BME280;2962;51.312;7.378;2023-09-19T08:43:42;97066.31;;;13.77;100.00
5872;BME280;2962;51.312;7.378;2023-09-19T08:46:11;97055.66;;;13.90;100.00
5872;BME280;2962;51.312;7.378;2023-09-19T08:48:46;97070.97;;;13.84;100.00
5872;BME280;2962;51.312;7.378;2023-09-19T08:51:18;97038.19;;;13.70;100.00
5872;BME280;2962;51.312;7.378;2023-09-19T08:54:00;97083.47;;;13.85;100.00
5872;BME280;2962;51.312;7.378;2023-09-19T08:56:29;97050.97;;;13.90;100.00
5872;BME280;2962;51.312;7.378;2023-09-19T08:59:00;97055.44;;;14.26;100.00
5872;BME280;2962;51.312;7.378;2023-09-19T09:01:28;97049.06;;;14.50;100.00
5872;BME280;2962;51.312;7.378;2023-09-19T09:03:54;97056.66;;;14.80;100.00
5872;BME280;2962;51.312;7.378;2023-09-19T09:06:21;97053.63;;;14.64;100.00
5872;BME280;2962;51.312;7.378;2023-09-19T09:08:46;97045.84;;;14.59;100.00
5872;BME280;2962;51.312;7.378;2023-09-19T09:11:13;97048.53;;;14.66;100.00
5872;BME280;2962;51.312;7.378;2023-09-19T09:13:39;97056.88;;;14.97;100.00
5872;BME280;2962;51.312;7.378;2023-09-19T09:16:07;97037.09;;;14.75;100.00
5872;BME280;2962;51.312;7.378;2023-09-19T09:18:33;97048.84;;;14.75;100.00
5872;BME280;2962;51.312;7.378;2023-09-19T09:20:58;97052.09;;;14.59;100.00
5872;BME280;2962;51.312;7.378;2023-09-19T09:23:23;97051.78;;;14.54;100.00
5872;BME280;2962;51.312;7.378;2023-09-19T09:25:54;97058.69;;;14.69;100.00
5872;BME280;2962;51.312;7.378;2023-09-19T09:28:24;97040.66;;;14.68;100.00
5872;BME280;2962;51.312;7.378;2023-09-19T09:30:50;97048.88;;;14.72;100.00
5872;BME280;2962;51.312;7.378;2023-09-19T09:33:16;97051.34;;;15.00;100.00
5872;BME280;2962;51.312;7.378;2023-09-19T09:38:20;97040.06;;;15.63;100.00
5872;BME280;2962;51.312;7.378;2023-09-19T09:40:50;97047.09;;;15.68;100.00
5872;BME280;2962;51.312;7.378;2023-09-19T09:43:30;97039.38;;;15.55;100.00
5872;BME280;2962;51.312;7.378;2023-09-19T09:46:15;97048.00;;;15.57;100.00
5872;BME280;2962;51.312;7.378;2023-09-19T09:48:47;97035.63;;;15.76;100.00
5872;BME280;2962;51.312;7.378;2023-09-19T09:51:32;97040.91;;;15.91;100.00
5872;BME280;2962;51.312;7.378;2023-09-19T09:54:18;97030.56;;;16.02;100.00
5872;BME280;2962;51.312;7.378;2023-09-19T09:56:57;97044.88;;;16.17;100.00
5872;BME280;2962;51.312;7.378;2023-09-19T09:59:55;97055.50;;;15.88;100.00
5872;BME280;2962;51.312;7.378;2023-09-19T10:02:28;97048.31;;;15.63;100.00
5872;BME280;2962;51.312;7.378;2023-09-19T10:04:57;97047.84;;;15.72;100.00
5872;BME280;2962;51.312;7.378;2023-09-19T10:07:50;97048.84;;;15.85;100.00
5872;BME280;2962;51.312;7.378;2023-09-19T10:13:05;97035.47;;;15.87;100.00
5872;BME280;2962;51.312;7.378;2023-09-19T10:15:33;97048.31;;;15.63;100.00
5872;BME280;2962;51.312;7.378;2023-09-19T10:18:04;97037.00;;;15.92;100.00
5872;BME280;2962;51.312;7.378;2023-09-19T10:20:30;97046.78;;;15.93;100.00
5872;BME280;2962;51.312;7.378;2023-09-19T10:23:01;97037.06;;;16.15;100.00
5872;BME280;2962;51.312;7.378;2023-09-19T10:25:29;97047.28;;;16.15;100.00
5872;BME280;2962;51.312;7.378;2023-09-19T10:27:57;97029.50;;;16.23;100.00
5872;BME280;2962;51.312;7.378;2023-09-19T10:30:24;97010.63;;;16.72;100.00
5872;BME280;2962;51.312;7.378;2023-09-19T10:33:03;97029.31;;;16.84;100.00
5872;BME280;2962;51.312;7.378;2023-09-19T10:35:29;97030.50;;;16.83;100.00
5872;BME280;2962;51.312;7.378;2023-09-19T10:37:57;97030.44;;;16.87;100.00
5872;BME280;2962;51.312;7.378;2023-09-19T10:40:26;97032.47;;;16.32;100.00
5872;BME280;2962;51.312;7.378;2023-09-19T10:43:04;97020.72;;;16.04;100.00
5872;BME280;2962;51.312;7.378;2023-09-19T10:45:34;97001.53;;;16.51;100.00
5872;BME280;2962;51.312;7.378;2023-09-19T10:48:01;97011.94;;;17.11;100.00
5872;BME280;2962;51.312;7.378;2023-09-19T10:50:30;97009.06;;;17.38;100.00
5872;BME280;2962;51.312;7.378;2023-09-19T10:53:00;97011.56;;;17.48;100.00
5872;BME280;2962;51.312;7.378;2023-09-19T10:55:30;97005.09;;;17.78;100.00
5872;BME280;2962;51.312;7.378;2023-09-19T10:57:56;97007.19;;;17.71;100.00
5872;BME280;2962;51.312;7.378;2023-09-19T11:00:57;97006.94;;;17.45;100.00
5872;BME280;2962;51.312;7.378;2023-09-19T11:03:27;96995.69;;;17.36;100.00
5872;BME280;2962;51.312;7.378;2023-09-19T11:06:25;97044.72;;;17.01;100.00
5872;BME280;2962;51.312;7.378;2023-09-19T11:14:29;97015.81;;;17.33;100.00
5872;BME280;2962;51.312;7.378;2023-09-19T11:30:31;97033.19;;;18.26;100.00
5872;BME280;2962;51.312;7.378;2023-09-19T11:33:23;97017.25;;;18.34;100.00
5872;BME280;2962;51.312;7.378;2023-09-19T11:36:13;96982.13;;;18.18;100.00
5872;BME280;2962;51.312;7.378;2023-09-19T11:46:18;97007.50;;;18.45;100.00
5872;BME280;2962;51.312;7.378;2023-09-19T11:48:48;97019.31;;;18.78;100.00
5872;BME280;2962;51.312;7.378;2023-09-19T11:51:18;97013.84;;;19.08;100.00
5872;BME280;2962;51.312;7.378;2023-09-19T11:53:46;97010.78;;;18.89;100.00
5872;BME280;2962;51.312;7.378;2023-09-19T11:56:15;96998.81;;;19.09;100.00
5872;BME280;2962;51.312;7.378;2023-09-19T11:58:43;97023.53;;;19.58;100.00
5872;BME280;2962;51.312;7.378;2023-09-19T12:01:14;97022.53;;;20.19;100.00
5872;BME280;2962;51.312;7.378;2023-09-19T12:03:46;97021.34;;;19.36;100.00
5872;BME280;2962;51.312;7.378;2023-09-19T12:06:15;96999.66;;;18.76;100.00
5872;BME280;2962;51.312;7.378;2023-09-19T12:08:42;97008.31;;;19.08;100.00
5872;BME280;2962;51.312;7.378;2023-09-19T12:11:13;97008.28;;;19.24;100.00
5872;BME280;2962;51.312;7.378;2023-09-19T12:13:45;97014.34;;;19.19;100.00
5872;BME280;2962;51.312;7.378;2023-09-19T12:16:13;97010.28;;;18.45;100.00
5872;BME280;2962;51.312;7.378;2023-09-19T12:18:40;96998.81;;;19.09;100.00
5872;BME280;2962;51.312;7.378;2023-09-19T12:21:07;97015.09;;;18.58;100.00
5872;BME280;2962;51.312;7.378;2023-09-19T12:23:37;97035.94;;;18.26;100.00
5872;BME280;2962;51.312;7.378;2023-09-19T12:26:06;97005.53;;;17.93;100.00
5872;BME280;2962;51.312;7.378;2023-09-19T12:28:41;96989.03;;;17.73;100.00
5872;BME280;2962;51.312;7.378;2023-09-19T12:31:07;96989.91;;;18.07;100.00
5872;BME280;2962;51.312;7.378;2023-09-19T12:33:33;96980.34;;;18.27;100.00
5872;BME280;2962;51.312;7.378;2023-09-19T12:35:59;96976.28;;;19.52;100.00
5872;BME280;2962;51.312;7.378;2023-09-19T12:38:25;96987.13;;;20.01;100.00
5872;BME280;2962;51.312;7.378;2023-09-19T12:40:55;96930.59;;;20.02;100.00
5872;BME280;2962;51.312;7.378;2023-09-19T12:43:20;96966.22;;;20.13;100.00
5872;BME280;2962;51.312;7.378;2023-09-19T12:45:47;96988.22;;;20.42;100.00
5872;BME280;2962;51.312;7.378;2023-09-19T12:48:24;97017.16;;;20.88;100.00
5872;BME280;2962;51.312;7.378;2023-09-19T12:51:12;96986.91;;;21.16;100.00
5872;BME280;2962;51.312;7.378;2023-09-19T12:53:41;96966.72;;;20.33;100.00
5872;BME280;2962;51.312;7.378;2023-09-19T12:56:13;96969.03;;;20.47;100.00
5872;BME280;2962;51.312;7.378;2023-09-19T12:58:57;96962.69;;;21.07;100.00
5872;BME280;2962;51.312;7.378;2023-09-19T13:01:28;96956.97;;;20.67;100.00
5872;BME280;2962;51.312;7.378;2023-09-19T13:04:16;96957.78;;;19.91;100.00
5872;BME280;2962;51.312;7.378;2023-09-19T13:06:49;96970.09;;;20.03;100.00
5872;BME280;2962;51.312;7.378;2023-09-19T13:09:16;96972.88;;;19.48;100.00
5872;BME280;2962;51.312;7.378;2023-09-19T13:11:42;96954.81;;;19.98;100.00
5872;BME280;2962;51.312;7.378;2023-09-19T13:14:22;96961.78;;;20.54;100.00
5872;BME280;2962;51.312;7.378;2023-09-19T13:17:00;96967.97;;;19.81;100.00
5872;BME280;2962;51.312;7.378;2023-09-19T13:19:46;96968.84;;;20.55;100.00
5872;BME280;2962;51.312;7.378;2023-09-19T13:25:07;96957.66;;;21.81;100.00
5872;BME280;2962;51.312;7.378;2023-09-19T13:27:33;96972.34;;;21.37;100.00
5872;BME280;2962;51.312;7.378;2023-09-19T13:29:59;96949.13;;;21.75;100.00
5872;BME280;2962;51.312;7.378;2023-09-19T13:32:25;96971.03;;;21.82;100.00
5872;BME280;2962;51.312;7.378;2023-09-19T13:34:50;96962.72;;;22.13;100.00
5872;BME280;2962;51.312;7.378;2023-09-19T13:37:16;96945.13;;;22.57;100.00
5872;BME280;2962;51.312;7.378;2023-09-19T13:39:43;96966.56;;;22.56;100.00
5872;BME280;2962;51.312;7.378;2023-09-19T13:42:13;96976.22;;;21.71;100.00
5872;BME280;2962;51.312;7.378;2023-09-19T13:44:38;96949.84;;;21.98;100.00
5872;BME280;2962;51.312;7.378;2023-09-19T13:47:03;96960.25;;;22.65;100.00
5872;BME280;2962;51.312;7.378;2023-09-19T13:49:35;96956.34;;;21.41;100.00
5872;BME280;2962;51.312;7.378;2023-09-19T13:52:00;96974.09;;;22.06;100.00
5872;BME280;2962;51.312;7.378;2023-09-19T13:54:28;96993.22;;;21.82;100.00
5872;BME280;2962;51.312;7.378;2023-09-19T13:56:53;96963.19;;;20.45;100.00
5872;BME280;2962;51.312;7.378;2023-09-19T13:59:19;96979.88;;;20.67;100.00